Columbus Grove, Ohio
Current Conditions -  °F | °C
As of 5:53 AM on Friday 28 Nov 2014 (Local Time) from KAOH Reporting Station
Scattered Clouds Scattered Clouds  
Wind Chill: 16°   Ceiling: Unl
Heat Index: 22°   Visibility: 10mi
Dew Point: 17°   Wind: 5mph
Humidity: 82%   Direction: 310°NW
Pressure: 30.34"   Gusts: NA
Location:  40.92°N, 84.06°W
Report Text: KAOH 281053Z AUTO 31004KT 10SM SCT034 M06/M08 A3034 RMK AO2 SLP288 T10561083
Loading
Personal Weather Stations






























Interactive Weather Map New forecast layout! Learn more

10-Day Weather Forecast

Advertisements
Track Severe Weather on mobile